Terminal Aerodrome Forecast
Issued by NWS

Home | Current Version | Previous Version | Text Only | Print | Product List | Glossary On
Versions: 1 2 3 4 5 6 7 8 9 10 11 12 13 14
000
FTUS44 KMOB 181100 RRA
TAFBFM
TAF
KBFM 181141Z 1812/1912 04012KT 4SM +RA BR SCT008 BKN012 OVC060
     FM181500 02014KT 5SM -RA OVC015
     FM181800 02017KT P6SM -RA BKN020
     FM190100 01014KT P6SM BKN030=

USA.gov is the U.S. government's official web portal to all federal, state and local government web resources and services.